sensor_id;sensor_type;location;lat;lon;timestamp;temperature;humidity
30288;DHT22;17103;48.316;11.558;2023-04-24T00:00:14;15.40;53.10
30288;DHT22;17103;48.316;11.558;2023-04-24T00:02:45;15.40;52.30
30288;DHT22;17103;48.316;11.558;2023-04-24T00:05:15;15.40;53.00
30288;DHT22;17103;48.316;11.558;2023-04-24T00:07:41;15.70;53.60
30288;DHT22;17103;48.316;11.558;2023-04-24T00:10:08;15.40;52.90
30288;DHT22;17103;48.316;11.558;2023-04-24T00:12:33;15.50;52.70
30288;DHT22;17103;48.316;11.558;2023-04-24T00:15:00;15.50;52.80
30288;DHT22;17103;48.316;11.558;2023-04-24T00:17:26;15.50;52.70
30288;DHT22;17103;48.316;11.558;2023-04-24T00:19:51;15.50;52.60
30288;DHT22;17103;48.316;11.558;2023-04-24T00:22:24;15.60;52.70
30288;DHT22;17103;48.316;11.558;2023-04-24T00:24:50;15.60;52.70
30288;DHT22;17103;48.316;11.558;2023-04-24T00:27:15;15.70;52.30
30288;DHT22;17103;48.316;11.558;2023-04-24T00:29:41;15.70;52.40
30288;DHT22;17103;48.316;11.558;2023-04-24T00:32:07;15.70;52.40
30288;DHT22;17103;48.316;11.558;2023-04-24T00:34:33;15.70;52.30
30288;DHT22;17103;48.316;11.558;2023-04-24T00:36:58;15.80;51.90
30288;DHT22;17103;48.316;11.558;2023-04-24T00:39:24;15.80;51.90
30288;DHT22;17103;48.316;11.558;2023-04-24T00:41:51;15.80;51.90
30288;DHT22;17103;48.316;11.558;2023-04-24T00:44:16;16.00;52.10
30288;DHT22;17103;48.316;11.558;2023-04-24T00:46:42;15.80;51.90
30288;DHT22;17103;48.316;11.558;2023-04-24T00:49:08;15.70;51.60
30288;DHT22;17103;48.316;11.558;2023-04-24T00:51:34;15.70;51.80
30288;DHT22;17103;48.316;11.558;2023-04-24T00:54:00;15.90;51.90
30288;DHT22;17103;48.316;11.558;2023-04-24T00:56:26;15.70;52.00
30288;DHT22;17103;48.316;11.558;2023-04-24T00:58:53;15.70;52.20
30288;DHT22;17103;48.316;11.558;2023-04-24T01:01:20;15.70;51.90
30288;DHT22;17103;48.316;11.558;2023-04-24T01:03:47;16.10;52.30
30288;DHT22;17103;48.316;11.558;2023-04-24T01:06:15;15.60;51.90
30288;DHT22;17103;48.316;11.558;2023-04-24T01:08:41;15.60;52.00
30288;DHT22;17103;48.316;11.558;2023-04-24T01:11:07;15.60;51.90
30288;DHT22;17103;48.316;11.558;2023-04-24T01:13:34;15.60;51.70
30288;DHT22;17103;48.316;11.558;2023-04-24T01:16:00;15.50;51.90
30288;DHT22;17103;48.316;11.558;2023-04-24T01:18:27;15.50;51.50
30288;DHT22;17103;48.316;11.558;2023-04-24T01:20:54;15.50;51.80
30288;DHT22;17103;48.316;11.558;2023-04-24T01:23:22;15.50;51.50
30288;DHT22;17103;48.316;11.558;2023-04-24T01:25:49;15.50;51.60
30288;DHT22;17103;48.316;11.558;2023-04-24T01:28:16;15.50;52.00
30288;DHT22;17103;48.316;11.558;2023-04-24T01:30:44;15.50;51.80
30288;DHT22;17103;48.316;11.558;2023-04-24T01:33:10;15.50;52.00
30288;DHT22;17103;48.316;11.558;2023-04-24T01:35:37;15.50;51.70
30288;DHT22;17103;48.316;11.558;2023-04-24T01:38:03;15.50;51.50
30288;DHT22;17103;48.316;11.558;2023-04-24T01:40:30;15.60;51.30
30288;DHT22;17103;48.316;11.558;2023-04-24T01:42:56;15.60;51.50
30288;DHT22;17103;48.316;11.558;2023-04-24T01:45:22;15.60;51.30
30288;DHT22;17103;48.316;11.558;2023-04-24T01:47:50;15.60;51.30
30288;DHT22;17103;48.316;11.558;2023-04-24T01:50:17;15.60;51.20
30288;DHT22;17103;48.316;11.558;2023-04-24T01:52:43;15.80;51.20
30288;DHT22;17103;48.316;11.558;2023-04-24T01:55:09;15.70;51.20
30288;DHT22;17103;48.316;11.558;2023-04-24T01:57:35;15.70;51.00
30288;DHT22;17103;48.316;11.558;2023-04-24T02:00:01;16.10;51.10
30288;DHT22;17103;48.316;11.558;2023-04-24T02:02:29;15.70;50.80
30288;DHT22;17103;48.316;11.558;2023-04-24T02:04:56;15.80;50.90
30288;DHT22;17103;48.316;11.558;2023-04-24T02:07:22;15.70;50.70
30288;DHT22;17103;48.316;11.558;2023-04-24T02:09:48;15.70;50.50
30288;DHT22;17103;48.316;11.558;2023-04-24T02:12:14;15.70;50.50
30288;DHT22;17103;48.316;11.558;2023-04-24T02:14:40;15.70;50.50
30288;DHT22;17103;48.316;11.558;2023-04-24T02:17:06;15.70;50.30
30288;DHT22;17103;48.316;11.558;2023-04-24T02:19:32;15.70;50.00
30288;DHT22;17103;48.316;11.558;2023-04-24T02:21:57;15.80;50.10
30288;DHT22;17103;48.316;11.558;2023-04-24T02:24:23;15.70;50.00
30288;DHT22;17103;48.316;11.558;2023-04-24T02:29:35;15.60;50.00
30288;DHT22;17103;48.316;11.558;2023-04-24T02:32:02;15.60;49.90
30288;DHT22;17103;48.316;11.558;2023-04-24T02:34:27;15.50;50.50
30288;DHT22;17103;48.316;11.558;2023-04-24T02:36:53;15.40;50.50
30288;DHT22;17103;48.316;11.558;2023-04-24T02:39:21;15.40;49.70
30288;DHT22;17103;48.316;11.558;2023-04-24T02:41:47;15.40;49.80
30288;DHT22;17103;48.316;11.558;2023-04-24T02:44:14;15.30;50.00
30288;DHT22;17103;48.316;11.558;2023-04-24T02:46:40;15.30;50.20
30288;DHT22;17103;48.316;11.558;2023-04-24T02:49:07;15.20;50.40
30288;DHT22;17103;48.316;11.558;2023-04-24T02:51:32;15.20;50.20
30288;DHT22;17103;48.316;11.558;2023-04-24T02:53:58;15.20;50.10
30288;DHT22;17103;48.316;11.558;2023-04-24T02:56:24;15.10;50.30
30288;DHT22;17103;48.316;11.558;2023-04-24T02:58:49;15.10;50.20
30288;DHT22;17103;48.316;11.558;2023-04-24T03:01:15;15.10;50.30
30288;DHT22;17103;48.316;11.558;2023-04-24T03:03:41;15.00;50.50
30288;DHT22;17103;48.316;11.558;2023-04-24T03:06:06;15.00;50.50
30288;DHT22;17103;48.316;11.558;2023-04-24T03:08:33;15.60;50.90
30288;DHT22;17103;48.316;11.558;2023-04-24T03:10:59;15.00;50.70
30288;DHT22;17103;48.316;11.558;2023-04-24T03:13:28;15.00;50.60
30288;DHT22;17103;48.316;11.558;2023-04-24T03:15:53;14.90;50.80
30288;DHT22;17103;48.316;11.558;2023-04-24T03:18:22;14.90;50.70
30288;DHT22;17103;48.316;11.558;2023-04-24T03:20:47;14.90;51.00
30288;DHT22;17103;48.316;11.558;2023-04-24T03:23:14;14.90;51.00
30288;DHT22;17103;48.316;11.558;2023-04-24T03:25:39;14.90;50.80
30288;DHT22;17103;48.316;11.558;2023-04-24T03:28:06;14.80;51.10
30288;DHT22;17103;48.316;11.558;2023-04-24T03:30:31;14.80;50.90
30288;DHT22;17103;48.316;11.558;2023-04-24T03:32:57;14.70;51.20
30288;DHT22;17103;48.316;11.558;2023-04-24T03:35:22;14.70;51.10
30288;DHT22;17103;48.316;11.558;2023-04-24T03:37:48;14.70;51.30
30288;DHT22;17103;48.316;11.558;2023-04-24T03:40:14;14.60;51.70
30288;DHT22;17103;48.316;11.558;2023-04-24T03:42:39;14.60;51.70
30288;DHT22;17103;48.316;11.558;2023-04-24T03:45:06;14.60;51.90
30288;DHT22;17103;48.316;11.558;2023-04-24T03:47:31;14.50;51.90
30288;DHT22;17103;48.316;11.558;2023-04-24T03:49:57;14.50;51.70
30288;DHT22;17103;48.316;11.558;2023-04-24T03:52:23;14.50;52.00
30288;DHT22;17103;48.316;11.558;2023-04-24T03:54:49;14.50;52.20
30288;DHT22;17103;48.316;11.558;2023-04-24T03:57:14;14.40;52.10
30288;DHT22;17103;48.316;11.558;2023-04-24T03:59:40;14.40;52.20
30288;DHT22;17103;48.316;11.558;2023-04-24T04:02:05;14.40;52.40
30288;DHT22;17103;48.316;11.558;2023-04-24T04:04:31;14.40;52.50
30288;DHT22;17103;48.316;11.558;2023-04-24T04:06:57;14.50;52.60
30288;DHT22;17103;48.316;11.558;2023-04-24T04:09:27;14.50;52.70
30288;DHT22;17103;48.316;11.558;2023-04-24T04:11:53;14.50;52.50
30288;DHT22;17103;48.316;11.558;2023-04-24T04:14:19;14.50;52.60
30288;DHT22;17103;48.316;11.558;2023-04-24T04:16:45;14.50;52.50
30288;DHT22;17103;48.316;11.558;2023-04-24T04:19:11;14.60;52.50
30288;DHT22;17103;48.316;11.558;2023-04-24T04:21:38;14.60;52.50
30288;DHT22;17103;48.316;11.558;2023-04-24T04:24:05;14.70;52.70
30288;DHT22;17103;48.316;11.558;2023-04-24T04:26:32;14.80;52.30
30288;DHT22;17103;48.316;11.558;2023-04-24T04:28:59;14.80;52.00
30288;DHT22;17103;48.316;11.558;2023-04-24T04:31:26;14.90;52.00
30288;DHT22;17103;48.316;11.558;2023-04-24T04:33:51;14.90;51.60
30288;DHT22;17103;48.316;11.558;2023-04-24T04:36:17;15.00;52.10
30288;DHT22;17103;48.316;11.558;2023-04-24T04:38:43;15.00;51.60
30288;DHT22;17103;48.316;11.558;2023-04-24T04:41:10;15.00;51.50
30288;DHT22;17103;48.316;11.558;2023-04-24T04:43:36;15.00;51.70
30288;DHT22;17103;48.316;11.558;2023-04-24T04:46:02;15.00;51.30
30288;DHT22;17103;48.316;11.558;2023-04-24T04:48:28;15.10;51.50
30288;DHT22;17103;48.316;11.558;2023-04-24T04:50:57;15.10;51.50
30288;DHT22;17103;48.316;11.558;2023-04-24T04:53:22;15.00;51.50
30288;DHT22;17103;48.316;11.558;2023-04-24T04:55:48;15.00;51.10
30288;DHT22;17103;48.316;11.558;2023-04-24T04:58:13;15.00;51.10
30288;DHT22;17103;48.316;11.558;2023-04-24T05:00:39;15.10;51.60
30288;DHT22;17103;48.316;11.558;2023-04-24T05:03:05;14.90;51.20
30288;DHT22;17103;48.316;11.558;2023-04-24T05:05:31;14.90;51.30
30288;DHT22;17103;48.316;11.558;2023-04-24T05:07:57;14.90;51.60
30288;DHT22;17103;48.316;11.558;2023-04-24T05:10:22;15.30;51.60
30288;DHT22;17103;48.316;11.558;2023-04-24T05:12:49;14.90;51.30
30288;DHT22;17103;48.316;11.558;2023-04-24T05:15:16;14.90;51.50
30288;DHT22;17103;48.316;11.558;2023-04-24T05:18:25;14.90;51.50
30288;DHT22;17103;48.316;11.558;2023-04-24T05:21:01;14.60;52.40
30288;DHT22;17103;48.316;11.558;2023-04-24T05:23:27;14.90;51.70
30288;DHT22;17103;48.316;11.558;2023-04-24T05:25:52;14.90;51.70
30288;DHT22;17103;48.316;11.558;2023-04-24T05:28:18;14.90;51.70
30288;DHT22;17103;48.316;11.558;2023-04-24T05:30:44;15.00;51.70
30288;DHT22;17103;48.316;11.558;2023-04-24T05:33:09;14.80;51.50
30288;DHT22;17103;48.316;11.558;2023-04-24T05:35:35;14.80;51.50
30288;DHT22;17103;48.316;11.558;2023-04-24T05:38:01;14.80;51.80
30288;DHT22;17103;48.316;11.558;2023-04-24T05:40:26;14.80;51.70
30288;DHT22;17103;48.316;11.558;2023-04-24T05:42:52;14.80;51.60
30288;DHT22;17103;48.316;11.558;2023-04-24T05:45:18;14.80;51.50
30288;DHT22;17103;48.316;11.558;2023-04-24T05:47:44;14.80;51.50
30288;DHT22;17103;48.316;11.558;2023-04-24T05:50:11;14.80;51.50
30288;DHT22;17103;48.316;11.558;2023-04-24T05:52:38;14.80;51.70
30288;DHT22;17103;48.316;11.558;2023-04-24T05:55:04;14.80;51.40
30288;DHT22;17103;48.316;11.558;2023-04-24T05:57:29;14.80;51.30
30288;DHT22;17103;48.316;11.558;2023-04-24T05:59:55;14.80;51.30
30288;DHT22;17103;48.316;11.558;2023-04-24T06:02:21;14.70;51.30
30288;DHT22;17103;48.316;11.558;2023-04-24T06:04:47;14.70;51.30
30288;DHT22;17103;48.316;11.558;2023-04-24T06:07:13;14.70;51.70
30288;DHT22;17103;48.316;11.558;2023-04-24T06:09:39;14.50;51.50
30288;DHT22;17103;48.316;11.558;2023-04-24T06:12:05;14.90;51.90
30288;DHT22;17103;48.316;11.558;2023-04-24T06:14:33;14.50;51.70
30288;DHT22;17103;48.316;11.558;2023-04-24T06:16:59;14.40;51.50
30288;DHT22;17103;48.316;11.558;2023-04-24T06:19:24;14.30;51.70
30288;DHT22;17103;48.316;11.558;2023-04-24T06:21:50;14.30;52.00
30288;DHT22;17103;48.316;11.558;2023-04-24T06:24:16;14.30;52.00
30288;DHT22;17103;48.316;11.558;2023-04-24T06:26:42;14.20;52.40
30288;DHT22;17103;48.316;11.558;2023-04-24T06:29:08;14.20;52.50
30288;DHT22;17103;48.316;11.558;2023-04-24T06:31:33;14.10;52.80
30288;DHT22;17103;48.316;11.558;2023-04-24T06:34:04;14.10;52.80
30288;DHT22;17103;48.316;11.558;2023-04-24T06:36:29;14.10;52.90
30288;DHT22;17103;48.316;11.558;2023-04-24T06:38:57;14.10;52.70
30288;DHT22;17103;48.316;11.558;2023-04-24T06:41:26;14.00;53.10
30288;DHT22;17103;48.316;11.558;2023-04-24T06:43:52;14.00;53.20
30288;DHT22;17103;48.316;11.558;2023-04-24T06:46:22;14.00;53.70
30288;DHT22;17103;48.316;11.558;2023-04-24T06:48:54;14.00;53.60
30288;DHT22;17103;48.316;11.558;2023-04-24T06:51:22;14.00;53.30
30288;DHT22;17103;48.316;11.558;2023-04-24T06:53:48;14.00;53.10
30288;DHT22;17103;48.316;11.558;2023-04-24T06:56:16;14.00;53.40
30288;DHT22;17103;48.316;11.558;2023-04-24T06:58:42;13.90;53.30
30288;DHT22;17103;48.316;11.558;2023-04-24T07:01:08;13.90;53.30
30288;DHT22;17103;48.316;11.558;2023-04-24T07:03:33;13.90;53.10
30288;DHT22;17103;48.316;11.558;2023-04-24T07:05:59;13.90;53.10
30288;DHT22;17103;48.316;11.558;2023-04-24T07:08:25;13.90;53.10
30288;DHT22;17103;48.316;11.558;2023-04-24T07:10:50;13.90;53.20
30288;DHT22;17103;48.316;11.558;2023-04-24T07:13:16;13.90;53.30
30288;DHT22;17103;48.316;11.558;2023-04-24T07:15:42;13.90;53.30
30288;DHT22;17103;48.316;11.558;2023-04-24T07:18:08;13.90;53.40
30288;DHT22;17103;48.316;11.558;2023-04-24T07:20:34;13.90;53.60
30288;DHT22;17103;48.316;11.558;2023-04-24T07:23:00;13.90;53.50
30288;DHT22;17103;48.316;11.558;2023-04-24T07:25:27;13.90;53.80
30288;DHT22;17103;48.316;11.558;2023-04-24T07:27:53;13.90;53.80
30288;DHT22;17103;48.316;11.558;2023-04-24T07:30:18;14.00;53.70
30288;DHT22;17103;48.316;11.558;2023-04-24T07:32:45;14.00;53.90
30288;DHT22;17103;48.316;11.558;2023-04-24T07:35:10;14.30;53.80
30288;DHT22;17103;48.316;11.558;2023-04-24T07:37:36;14.10;53.10
30288;DHT22;17103;48.316;11.558;2023-04-24T07:40:02;14.00;52.90
30288;DHT22;17103;48.316;11.558;2023-04-24T07:42:28;14.10;52.70
30288;DHT22;17103;48.316;11.558;2023-04-24T07:44:56;14.10;52.20
30288;DHT22;17103;48.316;11.558;2023-04-24T07:47:22;14.10;52.20
30288;DHT22;17103;48.316;11.558;2023-04-24T07:49:47;14.10;52.50
30288;DHT22;17103;48.316;11.558;2023-04-24T07:52:13;14.10;52.50
30288;DHT22;17103;48.316;11.558;2023-04-24T07:54:38;14.20;53.10
30288;DHT22;17103;48.316;11.558;2023-04-24T07:57:04;14.20;52.30
30288;DHT22;17103;48.316;11.558;2023-04-24T07:59:32;14.20;51.70
30288;DHT22;17103;48.316;11.558;2023-04-24T08:01:57;14.10;51.50
30288;DHT22;17103;48.316;11.558;2023-04-24T08:04:23;14.10;52.40
30288;DHT22;17103;48.316;11.558;2023-04-24T08:06:49;14.00;51.70
30288;DHT22;17103;48.316;11.558;2023-04-24T08:09:15;14.00;51.40
30288;DHT22;17103;48.316;11.558;2023-04-24T08:11:41;14.00;51.60
30288;DHT22;17103;48.316;11.558;2023-04-24T08:14:06;14.20;52.00
30288;DHT22;17103;48.316;11.558;2023-04-24T08:16:33;14.00;52.00
30288;DHT22;17103;48.316;11.558;2023-04-24T08:18:59;14.00;51.60
30288;DHT22;17103;48.316;11.558;2023-04-24T08:21:30;13.90;51.80
30288;DHT22;17103;48.316;11.558;2023-04-24T08:23:57;13.80;52.00
30288;DHT22;17103;48.316;11.558;2023-04-24T08:26:26;13.80;52.40
30288;DHT22;17103;48.316;11.558;2023-04-24T08:28:51;13.80;52.90
30288;DHT22;17103;48.316;11.558;2023-04-24T08:31:25;13.80;53.00
30288;DHT22;17103;48.316;11.558;2023-04-24T08:33:51;13.90;53.20
30288;DHT22;17103;48.316;11.558;2023-04-24T08:36:17;13.80;52.60
30288;DHT22;17103;48.316;11.558;2023-04-24T08:38:42;13.70;52.40
30288;DHT22;17103;48.316;11.558;2023-04-24T08:41:11;13.70;52.00
30288;DHT22;17103;48.316;11.558;2023-04-24T08:43:38;13.50;51.70
30288;DHT22;17103;48.316;11.558;2023-04-24T08:46:04;13.50;51.90
30288;DHT22;17103;48.316;11.558;2023-04-24T08:48:31;13.40;52.50
30288;DHT22;17103;48.316;11.558;2023-04-24T08:50:58;13.40;53.30
30288;DHT22;17103;48.316;11.558;2023-04-24T08:53:25;13.40;53.70
30288;DHT22;17103;48.316;11.558;2023-04-24T08:55:51;13.40;53.70
30288;DHT22;17103;48.316;11.558;2023-04-24T08:58:20;13.40;54.30
30288;DHT22;17103;48.316;11.558;2023-04-24T09:00:46;13.40;54.50
30288;DHT22;17103;48.316;11.558;2023-04-24T09:03:15;13.40;54.60
30288;DHT22;17103;48.316;11.558;2023-04-24T09:05:46;13.60;54.20
30288;DHT22;17103;48.316;11.558;2023-04-24T09:08:13;13.50;54.50
30288;DHT22;17103;48.316;11.558;2023-04-24T09:10:40;14.00;54.00
30288;DHT22;17103;48.316;11.558;2023-04-24T09:13:05;13.60;53.60
30288;DHT22;17103;48.316;11.558;2023-04-24T09:15:32;14.10;53.50
30288;DHT22;17103;48.316;11.558;2023-04-24T09:17:58;13.70;51.80
30288;DHT22;17103;48.316;11.558;2023-04-24T09:20:24;13.70;51.00
30288;DHT22;17103;48.316;11.558;2023-04-24T09:22:54;13.70;48.80
30288;DHT22;17103;48.316;11.558;2023-04-24T09:25:21;13.80;49.10
30288;DHT22;17103;48.316;11.558;2023-04-24T09:27:46;13.80;48.50
30288;DHT22;17103;48.316;11.558;2023-04-24T09:30:13;13.80;48.20
30288;DHT22;17103;48.316;11.558;2023-04-24T09:32:39;13.80;47.20
30288;DHT22;17103;48.316;11.558;2023-04-24T09:35:13;13.90;47.60
30288;DHT22;17103;48.316;11.558;2023-04-24T09:37:42;13.90;47.00
30288;DHT22;17103;48.316;11.558;2023-04-24T09:40:21;13.90;45.90
30288;DHT22;17103;48.316;11.558;2023-04-24T09:42:57;14.00;46.30
30288;DHT22;17103;48.316;11.558;2023-04-24T09:45:36;14.00;46.40
30288;DHT22;17103;48.316;11.558;2023-04-24T09:48:02;14.10;46.40
30288;DHT22;17103;48.316;11.558;2023-04-24T09:50:30;14.10;45.80
30288;DHT22;17103;48.316;11.558;2023-04-24T09:53:06;14.10;45.50
30288;DHT22;17103;48.316;11.558;2023-04-24T09:55:39;14.10;44.90
30288;DHT22;17103;48.316;11.558;2023-04-24T09:58:08;14.20;45.10
30288;DHT22;17103;48.316;11.558;2023-04-24T10:00:34;14.30;45.80
30288;DHT22;17103;48.316;11.558;2023-04-24T10:03:01;14.30;45.30
30288;DHT22;17103;48.316;11.558;2023-04-24T10:05:35;14.30;44.70
30288;DHT22;17103;48.316;11.558;2023-04-24T10:08:06;14.30;44.10
30288;DHT22;17103;48.316;11.558;2023-04-24T10:10:34;14.30;44.20
30288;DHT22;17103;48.316;11.558;2023-04-24T10:13:00;14.30;44.20
30288;DHT22;17103;48.316;11.558;2023-04-24T10:15:27;14.30;44.90
30288;DHT22;17103;48.316;11.558;2023-04-24T10:17:53;14.40;45.50
30288;DHT22;17103;48.316;11.558;2023-04-24T10:20:23;14.40;44.50
30288;DHT22;17103;48.316;11.558;2023-04-24T10:22:52;14.40;45.00
30288;DHT22;17103;48.316;11.558;2023-04-24T10:25:26;14.30;45.20
30288;DHT22;17103;48.316;11.558;2023-04-24T10:27:53;14.50;45.90
30288;DHT22;17103;48.316;11.558;2023-04-24T10:30:23;14.60;46.30
30288;DHT22;17103;48.316;11.558;2023-04-24T10:32:48;14.60;45.80
30288;DHT22;17103;48.316;11.558;2023-04-24T10:35:17;14.70;45.40
30288;DHT22;17103;48.316;11.558;2023-04-24T10:37:46;14.70;44.70
30288;DHT22;17103;48.316;11.558;2023-04-24T10:40:18;14.80;44.30
30288;DHT22;17103;48.316;11.558;2023-04-24T10:42:48;14.90;44.10
30288;DHT22;17103;48.316;11.558;2023-04-24T10:45:21;14.90;43.40
30288;DHT22;17103;48.316;11.558;2023-04-24T10:47:59;15.00;43.90
30288;DHT22;17103;48.316;11.558;2023-04-24T10:50:28;15.10;43.80
30288;DHT22;17103;48.316;11.558;2023-04-24T10:53:06;15.20;43.40
30288;DHT22;17103;48.316;11.558;2023-04-24T10:55:52;15.30;43.30
30288;DHT22;17103;48.316;11.558;2023-04-24T10:58:24;15.30;43.60
30288;DHT22;17103;48.316;11.558;2023-04-24T11:00:58;15.30;43.60
30288;DHT22;17103;48.316;11.558;2023-04-24T11:03:29;15.30;43.70
30288;DHT22;17103;48.316;11.558;2023-04-24T11:06:05;15.40;43.40
30288;DHT22;17103;48.316;11.558;2023-04-24T11:08:38;15.30;42.80
30288;DHT22;17103;48.316;11.558;2023-04-24T11:11:13;15.20;42.80
30288;DHT22;17103;48.316;11.558;2023-04-24T11:16:42;15.00;43.80
30288;DHT22;17103;48.316;11.558;2023-04-24T11:34:51;13.80;45.40
30288;DHT22;17103;48.316;11.558;2023-04-24T11:37:17;13.80;45.50
30288;DHT22;17103;48.316;11.558;2023-04-24T11:39:43;13.60;45.80
30288;DHT22;17103;48.316;11.558;2023-04-24T11:42:15;13.60;46.00
30288;DHT22;17103;48.316;11.558;2023-04-24T11:44:42;13.50;46.20
30288;DHT22;17103;48.316;11.558;2023-04-24T11:47:08;13.50;46.00
30288;DHT22;17103;48.316;11.558;2023-04-24T11:49:36;13.50;46.00
30288;DHT22;17103;48.316;11.558;2023-04-24T11:52:14;13.50;46.00
30288;DHT22;17103;48.316;11.558;2023-04-24T11:54:48;13.50;46.10
30288;DHT22;17103;48.316;11.558;2023-04-24T11:57:14;13.50;46.20
30288;DHT22;17103;48.316;11.558;2023-04-24T11:59:40;13.60;45.90
30288;DHT22;17103;48.316;11.558;2023-04-24T12:02:05;13.60;46.40
30288;DHT22;17103;48.316;11.558;2023-04-24T12:04:41;13.70;46.10
30288;DHT22;17103;48.316;11.558;2023-04-24T12:07:09;13.90;46.30
30288;DHT22;17103;48.316;11.558;2023-04-24T12:09:45;13.90;46.50
30288;DHT22;17103;48.316;11.558;2023-04-24T12:12:12;14.10;46.80
30288;DHT22;17103;48.316;11.558;2023-04-24T12:15:11;14.60;47.00
30288;DHT22;17103;48.316;11.558;2023-04-24T12:17:41;14.40;45.80
30288;DHT22;17103;48.316;11.558;2023-04-24T12:20:07;14.60;44.90
30288;DHT22;17103;48.316;11.558;2023-04-24T12:22:56;14.70;43.20
30288;DHT22;17103;48.316;11.558;2023-04-24T12:25:28;14.70;41.20
30288;DHT22;17103;48.316;11.558;2023-04-24T12:28:14;14.80;41.10
30288;DHT22;17103;48.316;11.558;2023-04-24T12:30:46;14.90;40.60
30288;DHT22;17103;48.316;11.558;2023-04-24T12:33:19;15.00;39.80
30288;DHT22;17103;48.316;11.558;2023-04-24T12:35:45;15.20;38.70
30288;DHT22;17103;48.316;11.558;2023-04-24T12:38:12;15.30;38.00
30288;DHT22;17103;48.316;11.558;2023-04-24T12:40:40;15.40;37.60
30288;DHT22;17103;48.316;11.558;2023-04-24T12:43:17;15.70;37.30
30288;DHT22;17103;48.316;11.558;2023-04-24T12:45:43;15.50;37.50
30288;DHT22;17103;48.316;11.558;2023-04-24T12:48:10;15.60;37.60
30288;DHT22;17103;48.316;11.558;2023-04-24T12:50:36;15.60;37.70
30288;DHT22;17103;48.316;11.558;2023-04-24T12:53:03;15.80;38.80
30288;DHT22;17103;48.316;11.558;2023-04-24T12:55:28;15.60;38.50
30288;DHT22;17103;48.316;11.558;2023-04-24T12:57:54;15.60;36.90
30288;DHT22;17103;48.316;11.558;2023-04-24T13:00:21;15.50;36.60
30288;DHT22;17103;48.316;11.558;2023-04-24T13:02:47;15.50;36.50
30288;DHT22;17103;48.316;11.558;2023-04-24T13:05:13;15.50;37.60
30288;DHT22;17103;48.316;11.558;2023-04-24T13:07:39;15.50;37.90
30288;DHT22;17103;48.316;11.558;2023-04-24T13:10:06;15.40;38.70
30288;DHT22;17103;48.316;11.558;2023-04-24T13:12:32;15.50;39.30
30288;DHT22;17103;48.316;11.558;2023-04-24T13:14:58;15.60;39.40
30288;DHT22;17103;48.316;11.558;2023-04-24T13:17:24;15.80;39.50
30288;DHT22;17103;48.316;11.558;2023-04-24T13:19:51;15.90;38.00
30288;DHT22;17103;48.316;11.558;2023-04-24T13:22:17;15.90;38.00
30288;DHT22;17103;48.316;11.558;2023-04-24T13:24:44;16.00;38.20
30288;DHT22;17103;48.316;11.558;2023-04-24T13:27:10;16.30;37.00
30288;DHT22;17103;48.316;11.558;2023-04-24T13:29:36;16.10;36.90
30288;DHT22;17103;48.316;11.558;2023-04-24T13:32:02;16.00;36.80
30288;DHT22;17103;48.316;11.558;2023-04-24T13:34:28;16.10;36.60
30288;DHT22;17103;48.316;11.558;2023-04-24T13:36:56;16.00;36.60
30288;DHT22;17103;48.316;11.558;2023-04-24T13:39:22;16.10;36.80
30288;DHT22;17103;48.316;11.558;2023-04-24T13:41:48;16.20;36.90
30288;DHT22;17103;48.316;11.558;2023-04-24T13:44:15;16.30;36.80
30288;DHT22;17103;48.316;11.558;2023-04-24T13:46:42;16.40;36.30
30288;DHT22;17103;48.316;11.558;2023-04-24T13:49:10;16.40;36.60
30288;DHT22;17103;48.316;11.558;2023-04-24T13:51:35;16.40;36.30
30288;DHT22;17103;48.316;11.558;2023-04-24T13:54:01;16.40;36.40
30288;DHT22;17103;48.316;11.558;2023-04-24T13:56:27;16.40;35.80
30288;DHT22;17103;48.316;11.558;2023-04-24T13:58:52;16.30;35.80
30288;DHT22;17103;48.316;11.558;2023-04-24T14:01:24;16.20;34.40
30288;DHT22;17103;48.316;11.558;2023-04-24T14:03:54;16.20;34.50
30288;DHT22;17103;48.316;11.558;2023-04-24T14:06:23;16.20;35.10
30288;DHT22;17103;48.316;11.558;2023-04-24T14:08:49;16.10;34.60
30288;DHT22;17103;48.316;11.558;2023-04-24T14:11:16;16.10;35.20
30288;DHT22;17103;48.316;11.558;2023-04-24T14:13:42;16.00;34.30
30288;DHT22;17103;48.316;11.558;2023-04-24T14:16:09;16.00;34.60
30288;DHT22;17103;48.316;11.558;2023-04-24T14:18:35;16.70;34.10
30288;DHT22;17103;48.316;11.558;2023-04-24T14:21:04;16.30;33.70
30288;DHT22;17103;48.316;11.558;2023-04-24T14:23:30;16.20;33.80
30288;DHT22;17103;48.316;11.558;2023-04-24T14:25:57;16.20;33.70
30288;DHT22;17103;48.316;11.558;2023-04-24T14:28:24;16.20;33.70
30288;DHT22;17103;48.316;11.558;2023-04-24T14:30:50;16.20;33.60
30288;DHT22;17103;48.316;11.558;2023-04-24T14:33:17;16.20;32.50
30288;DHT22;17103;48.316;11.558;2023-04-24T14:35:43;16.20;32.40
30288;DHT22;17103;48.316;11.558;2023-04-24T14:38:09;16.10;31.80
30288;DHT22;17103;48.316;11.558;2023-04-24T14:40:35;16.10;32.10
30288;DHT22;17103;48.316;11.558;2023-04-24T14:43:01;16.10;31.70
30288;DHT22;17103;48.316;11.558;2023-04-24T14:45:27;16.00;33.40
30288;DHT22;17103;48.316;11.558;2023-04-24T14:47:53;16.10;34.70
30288;DHT22;17103;48.316;11.558;2023-04-24T14:50:19;16.00;34.60
30288;DHT22;17103;48.316;11.558;2023-04-24T14:52:45;16.00;35.30
30288;DHT22;17103;48.316;11.558;2023-04-24T14:55:12;16.00;35.50
30288;DHT22;17103;48.316;11.558;2023-04-24T14:57:40;16.20;35.60
30288;DHT22;17103;48.316;11.558;2023-04-24T15:00:07;16.00;34.90
30288;DHT22;17103;48.316;11.558;2023-04-24T15:02:35;16.10;35.00
30288;DHT22;17103;48.316;11.558;2023-04-24T15:05:03;16.00;34.20
30288;DHT22;17103;48.316;11.558;2023-04-24T15:07:29;16.00;34.40
30288;DHT22;17103;48.316;11.558;2023-04-24T15:09:56;16.00;34.10
30288;DHT22;17103;48.316;11.558;2023-04-24T15:12:22;16.00;34.70
30288;DHT22;17103;48.316;11.558;2023-04-24T15:14:48;16.00;34.80
30288;DHT22;17103;48.316;11.558;2023-04-24T15:17:13;16.10;34.50
30288;DHT22;17103;48.316;11.558;2023-04-24T15:19:39;16.20;34.20
30288;DHT22;17103;48.316;11.558;2023-04-24T15:22:04;16.30;34.60
30288;DHT22;17103;48.316;11.558;2023-04-24T15:24:30;16.30;34.50
30288;DHT22;17103;48.316;11.558;2023-04-24T15:26:56;16.80;34.60
30288;DHT22;17103;48.316;11.558;2023-04-24T15:29:22;16.60;34.10
30288;DHT22;17103;48.316;11.558;2023-04-24T15:31:48;16.70;33.50
30288;DHT22;17103;48.316;11.558;2023-04-24T15:34:14;16.80;33.10
30288;DHT22;17103;48.316;11.558;2023-04-24T15:36:39;16.80;33.40